Weather at Lockhart Municipal Airport

Public forecast

Using degrees Fahrenheit for public forecast. Weather courtesy of forecast.io.

Closest aviation weather report (METAR) to Lockhart Municipal Airport

Closest report is San Marcos Regional Airport, 10.2 nm (19.0 km) WNW. Retrieved 2020/09/18 13:56 UTC (16 minutes ago):

KHYI 181356Z 02009KT 10SM CLR 24/21 A3006 RMK AO2 SLP171 T02390211

Closest aviation forecast (TAF) to Lockhart Municipal Airport

Closest forecast is Austin Bergstrom International Airport, 20.7 nm (38.3 km) N. Retrieved 2020/09/18 12:34 UTC (2 hours ago):

TAF KAUS 181131Z 1812/1918 35007KT P6SM SCT025 BKN150 FM181500 03014KT P6SM SCT040 SCT150 FM190200 01007KT P6SM SCT080